createdAt,value
2019-02-26T00:05:03.459Z,1
2019-02-26T00:10:04.592Z,1
2019-02-26T00:20:10.825Z,3.1
2019-02-26T00:25:12.766Z,13.6
2019-02-26T00:30:16.120Z,18.3
2019-02-26T00:35:18.212Z,28.5
2019-02-26T00:40:20.134Z,24.1
2019-02-26T00:45:22.975Z,21
2019-02-26T00:50:23.457Z,16.5
2019-02-26T00:55:27.856Z,19.7
2019-02-26T01:00:28.996Z,33.4
2019-02-26T01:05:30.874Z,30
2019-02-26T01:10:34.553Z,28.3
2019-02-26T01:15:35.739Z,29.6
2019-02-26T01:20:38.199Z,26.7
2019-02-26T01:25:40.673Z,55.8
2019-02-26T01:30:43.117Z,54.6
2019-02-26T01:35:45.575Z,47.6
2019-02-26T01:40:49.062Z,50.5
2019-02-26T01:45:51.515Z,43.1
2019-02-26T01:50:54.403Z,55.3
2019-02-26T01:55:55.454Z,64.7
2019-02-26T02:11:04.726Z,90
2019-02-26T02:16:06.706Z,90.6
2019-02-26T02:21:07.757Z,90.9
2019-02-26T02:26:11.460Z,90.9
2019-02-26T02:31:12.621Z,81.9
2019-02-26T02:36:17.529Z,73.9
2019-02-26T02:41:17.550Z,73.9
2019-02-26T02:46:19.982Z,72.8
2019-02-26T02:51:22.494Z,90.9
2019-02-26T02:56:24.936Z,95.8
2019-02-26T03:01:28.552Z,97.3
2019-02-26T03:06:30.591Z,99.9
2019-02-26T03:11:35.864Z,99.9
2019-02-26T03:16:34.723Z,99.9
2019-02-26T03:21:37.190Z,99.9
2019-02-26T03:26:39.703Z,99.9
2019-02-26T03:31:46.374Z,99.9
2019-02-26T03:36:45.683Z,99.9
2019-02-26T03:41:48.572Z,99.9
2019-02-26T03:46:49.530Z,99.9
2019-02-26T03:51:51.931Z,99.9
2019-02-26T03:56:54.404Z,99.9
2019-02-26T04:01:56.838Z,99.9
2019-02-26T04:07:01.297Z,99.9
2019-02-26T04:12:01.765Z,99.9
2019-02-26T04:17:06.421Z,99.9
2019-02-26T04:22:06.719Z,99.9
2019-02-26T04:27:09.161Z,99.9
2019-02-26T04:32:12.005Z,99.9
2019-02-26T04:37:14.058Z,99.9
2019-02-26T04:42:18.098Z,99.9
2019-02-26T04:47:21.362Z,99.9
2019-02-26T04:52:21.538Z,99.9
2019-02-26T04:57:23.873Z,99.9
2019-02-26T05:02:26.398Z,99.9
2019-02-26T05:07:28.782Z,99.9
2019-02-26T05:12:33.958Z,99.9
2019-02-26T05:17:33.733Z,99.9
2019-02-26T05:22:36.221Z,99.9
2019-02-26T05:27:39.628Z,99.9
2019-02-26T05:32:41.129Z,99.9
2019-02-26T05:37:43.566Z,99.9
2019-02-26T05:42:46.294Z,99.9
2019-02-26T05:47:50.682Z,99.9
2019-02-26T05:52:57.419Z,99.9
2019-02-26T05:57:53.488Z,99.9
2019-02-26T06:02:55.819Z,99.9
2019-02-26T06:07:58.322Z,99.9
2019-02-26T06:13:02.166Z,99.9
2019-02-26T06:18:03.178Z,99.9
2019-02-26T06:23:05.652Z,99.9
2019-02-26T06:28:10.460Z,99.9
2019-02-26T06:33:12.031Z,99.9
2019-02-26T06:38:13.002Z,99.9
2019-02-26T06:43:15.584Z,99.9
2019-02-26T06:48:20.217Z,99.9
2019-02-26T06:53:21.498Z,99.9
2019-02-26T06:58:22.851Z,99.9
2019-02-26T07:03:25.348Z,99.9
2019-02-26T07:08:28.962Z,99.9
2019-02-26T07:13:30.230Z,99.9
2019-02-26T07:18:37.719Z,99.9
2019-02-26T07:23:37.531Z,99.9
2019-02-26T07:28:39.169Z,99.9
2019-02-26T07:33:40.094Z,99.9
2019-02-26T07:38:44.562Z,99.9
2019-02-26T07:43:46.770Z,99.9
2019-02-26T07:48:48.740Z,95.4
2019-02-26T07:53:51.557Z,8.1
2019-02-26T07:58:52.383Z,1
2019-02-26T08:03:54.848Z,1
2019-02-26T08:08:57.317Z,1
2019-02-26T08:14:04.785Z,1
2019-02-26T08:19:02.353Z,1
2019-02-26T08:24:04.678Z,1
2019-02-26T08:29:07.493Z,1
2019-02-26T08:34:12.584Z,1
2019-02-26T08:39:14.813Z,1
2019-02-26T08:44:14.502Z,1
2019-02-26T08:49:17.979Z,1
2019-02-26T08:54:21.010Z,1
2019-02-26T08:59:21.879Z,1
2019-02-26T09:04:24.397Z,1
2019-02-26T09:09:27.706Z,1
2019-02-26T09:14:32.004Z,1
2019-02-26T09:19:32.993Z,1
2019-02-26T09:24:34.162Z,1
2019-02-26T09:29:38.771Z,1
2019-02-26T09:34:39.862Z,1
2019-02-26T09:39:41.708Z,1
2019-02-26T09:44:44.028Z,1
2019-02-26T09:49:47.671Z,1
2019-02-26T09:54:50.964Z,1
2019-02-26T09:59:52.191Z,1
2019-02-26T10:04:54.403Z,1
2019-02-26T10:09:56.330Z,1
2019-02-26T10:14:59.966Z,1
2019-02-26T10:20:07.684Z,1
2019-02-26T10:25:03.717Z,1
2019-02-26T10:30:08.304Z,1
2019-02-26T10:35:09.248Z,1
2019-02-26T10:40:12.060Z,1
2019-02-26T10:45:13.560Z,1
2019-02-26T10:50:18.429Z,1
2019-02-26T10:55:21.589Z,1
2019-02-26T11:00:22.551Z,1
2019-02-26T11:05:26.115Z,1
2019-02-26T11:10:25.843Z,1
2019-02-26T11:15:30.916Z,1
2019-02-26T11:20:33.934Z,1
2019-02-26T11:25:33.265Z,1
2019-02-26T11:30:35.697Z,1
2019-02-26T11:35:39.504Z,1
2019-02-26T11:40:40.628Z,1
2019-02-26T11:45:44.508Z,1
2019-02-26T11:50:45.512Z,1
2019-02-26T11:55:49.819Z,1
2019-02-26T12:00:51.017Z,1
2019-02-26T12:05:53.993Z,1
2019-02-26T12:10:58.682Z,1
2019-02-26T12:15:58.104Z,1
2019-02-26T12:21:02.696Z,1
2019-02-26T12:26:03.875Z,1
2019-02-26T12:31:07.778Z,1
2019-02-26T12:36:09.754Z,1
2019-02-26T12:41:12.096Z,1
2019-02-26T12:46:12.555Z,1
2019-02-26T12:51:15.051Z,1
2019-02-26T12:56:17.610Z,1
2019-02-26T13:01:20.019Z,1
2019-02-26T13:06:23.011Z,1
2019-02-26T13:11:25.155Z,1
2019-02-26T13:16:27.323Z,1
2019-02-26T13:21:29.849Z,1
2019-02-26T13:26:35.365Z,1
2019-02-26T13:31:41.697Z,1
2019-02-26T13:36:39.566Z,1
2019-02-26T13:41:39.672Z,1
2019-02-26T13:46:42.091Z,1
2019-02-26T13:51:44.622Z,1
2019-02-26T13:56:46.981Z,1
2019-02-26T14:01:49.441Z,1
2019-02-26T14:06:52.125Z,1
2019-02-26T14:11:54.413Z,1
2019-02-26T14:16:56.882Z,1
2019-02-26T14:21:59.278Z,1
2019-02-26T14:27:01.781Z,1
2019-02-26T14:32:04.232Z,1
2019-02-26T14:37:06.655Z,1
2019-02-26T14:42:09.109Z,1
2019-02-26T14:57:16.500Z,1
2019-02-26T15:02:18.945Z,1
2019-02-26T15:07:21.448Z,1
2019-02-26T15:12:23.853Z,1
2019-02-26T15:17:26.381Z,1
2019-02-26T15:22:28.966Z,1
2019-02-26T15:27:36.043Z,1
2019-02-26T15:32:33.716Z,1
2019-02-26T15:37:36.213Z,1
2019-02-26T15:42:38.630Z,1
2019-02-26T15:47:41.096Z,1
2019-02-26T15:52:43.516Z,1
2019-02-26T15:57:45.973Z,1
2019-02-26T16:02:48.429Z,1
2019-02-26T16:07:50.915Z,1
2019-02-26T16:12:53.347Z,1
2019-02-26T16:17:58.397Z,1
2019-02-26T16:22:58.537Z,1
2019-02-26T16:28:00.828Z,1
2019-02-26T16:33:03.289Z,1
2019-02-26T16:38:05.677Z,1
2019-02-26T16:43:08.093Z,1
2019-02-26T16:48:10.547Z,1
2019-02-26T16:53:13.051Z,1
2019-02-26T16:58:15.567Z,1
2019-02-26T17:03:17.927Z,1
2019-02-26T17:08:20.389Z,1
2019-02-26T17:13:22.864Z,1
2019-02-26T17:18:25.407Z,1
2019-02-26T17:23:27.785Z,1
2019-02-26T17:28:30.298Z,1
2019-02-26T17:33:32.758Z,1
2019-02-26T17:38:35.232Z,1
2019-02-26T17:43:37.591Z,1
2019-02-26T17:48:43.384Z,1
2019-02-26T17:53:42.573Z,1
2019-02-26T17:58:45.045Z,1
2019-02-26T18:03:47.508Z,1
2019-02-26T18:08:49.912Z,1
2019-02-26T18:13:52.340Z,1
2019-02-26T18:18:54.778Z,1
2019-02-26T18:23:57.238Z,1
2019-02-26T18:28:59.701Z,1
2019-02-26T18:34:02.181Z,1
2019-02-26T18:39:04.744Z,1
2019-02-26T18:44:07.088Z,1
2019-02-26T18:49:09.537Z,1
2019-02-26T18:54:11.996Z,1
2019-02-26T18:59:14.739Z,1
2019-02-26T19:04:16.923Z,1
2019-02-26T19:09:19.363Z,1
2019-02-26T19:14:21.861Z,1
2019-02-26T19:19:24.270Z,1
2019-02-26T19:24:26.737Z,1
2019-02-26T19:29:31.141Z,1
2019-02-26T19:34:31.653Z,1
2019-02-26T19:39:34.262Z,1
2019-02-26T19:44:36.566Z,1
2019-02-26T19:49:39.634Z,1
2019-02-26T19:54:42.547Z,1
2019-02-26T19:59:46.734Z,1
2019-02-26T20:04:46.409Z,1
2019-02-26T20:09:48.875Z,1
2019-02-26T20:14:51.321Z,1
2019-02-26T20:19:53.761Z,1
2019-02-26T20:24:56.243Z,1
2019-02-26T20:29:58.679Z,1
2019-02-26T20:35:01.233Z,1
2019-02-26T20:40:03.620Z,1
2019-02-26T20:45:06.128Z,1
2019-02-26T20:50:08.545Z,1
2019-02-26T20:55:10.981Z,1
2019-02-26T21:00:13.515Z,1
2019-02-26T21:05:15.942Z,1
2019-02-26T21:10:18.395Z,1
2019-02-26T21:15:20.849Z,1
2019-02-26T21:20:23.308Z,1
2019-02-26T21:25:25.772Z,1
2019-02-26T21:30:28.283Z,1
2019-02-26T21:35:30.745Z,1
2019-02-26T21:40:33.164Z,1
2019-02-26T21:45:35.656Z,1
2019-02-26T21:50:38.098Z,1
2019-02-26T21:55:44.261Z,1
2019-02-26T22:00:43.030Z,1
2019-02-26T22:05:45.791Z,1
2019-02-26T22:10:48.054Z,1
2019-02-26T22:15:50.502Z,1
2019-02-26T22:20:52.890Z,1
2019-02-26T22:25:55.488Z,1
2019-02-26T22:30:57.812Z,1
2019-02-26T22:36:00.311Z,1
2019-02-26T22:41:02.979Z,1
2019-02-26T22:46:05.195Z,1
2019-02-26T22:51:07.657Z,1
2019-02-26T22:56:10.126Z,1
2019-02-26T23:01:12.682Z,1
2019-02-26T23:06:15.046Z,1
2019-02-26T23:11:17.547Z,1
2019-02-26T23:16:19.961Z,1
2019-02-26T23:21:22.435Z,1
2019-02-26T23:26:24.959Z,1
2019-02-26T23:31:27.376Z,1
2019-02-26T23:36:29.927Z,1
2019-02-26T23:41:33.009Z,3.9
2019-02-26T23:46:34.748Z,18.7
2019-02-26T23:51:37.188Z,37.1
2019-02-26T23:56:39.676Z,39.6
